Time;durP1;ratioP1;P1;durP2;ratioP2;P2;SDS_P1;SDS_P2;PMS_P1;PMS_P2;Temp;Humidity;BMP_temperature;BMP_pressure;BME280_temperature;BME280_humidity;BME280_pressure;Samples;Min_cycle;Max_cycle;Signal;HPM_P1;HPM_P2
2022/01/23 00:01:26;;;;;;;32.42;25.98;;;8.70;99.90;;;;;;5076631;28;20603;-76
2022/01/23 00:03:52;;;;;;;34.10;25.70;;;8.70;99.90;;;;;;5094372;28;20195;-77
2022/01/23 00:06:17;;;;;;;38.33;28.47;;;8.70;99.90;;;;;;5093416;28;20635;-78
2022/01/23 00:08:43;;;;;;;36.43;28.10;;;8.60;99.90;;;;;;5080169;28;20677;-77
2022/01/23 00:11:09;;;;;;;40.50;27.40;;;8.60;99.90;;;;;;5085286;28;20211;-77
2022/01/23 00:19:03;;;;;;;37.25;26.92;;;8.60;99.90;;;;;;5078771;28;20171;-77
2022/01/23 00:21:29;;;;;;;39.13;27.83;;;8.60;99.90;;;;;;5070317;28;20204;-77
2022/01/23 00:31:51;;;;;;;34.70;26.65;;;8.60;99.90;;;;;;5073467;28;20253;-77
2022/01/23 00:34:17;;;;;;;32.80;25.90;;;8.60;99.90;;;;;;5080141;28;20631;-77
2022/01/23 00:36:43;;;;;;;37.17;27.67;;;8.60;99.90;;;;;;5083742;28;20180;-76
2022/01/23 00:39:09;;;;;;;38.70;29.27;;;8.60;99.90;;;;;;5061219;28;20573;-76
2022/01/23 00:41:35;;;;;;;38.67;27.60;;;8.60;99.90;;;;;;5083282;28;21248;-77
2022/01/23 00:44:02;;;;;;;36.35;27.63;;;8.60;99.90;;;;;;5090246;28;20682;-76
2022/01/23 00:46:34;;;;;;;31.35;25.08;;;8.60;99.90;;;;;;5082506;28;20533;-76
2022/01/23 00:51:29;;;;;;;33.75;25.58;;;8.60;99.90;;;;;;5062668;28;20668;-76
2022/01/23 00:53:57;;;;;;;33.58;26.58;;;8.60;99.90;;;;;;5079734;28;20242;-76
2022/01/23 00:56:23;;;;;;;32.45;25.40;;;8.60;99.90;;;;;;5060145;28;20184;-76
2022/01/23 00:58:49;;;;;;;34.97;25.95;;;8.60;99.90;;;;;;5075671;28;20225;-77
2022/01/23 01:01:16;;;;;;;34.80;26.20;;;8.60;99.90;;;;;;5084642;28;20210;-77
2022/01/23 01:03:42;;;;;;;37.85;27.25;;;8.60;99.90;;;;;;5079367;28;20199;-76
2022/01/23 01:06:08;;;;;;;36.73;26.27;;;8.60;99.90;;;;;;5086358;28;20658;-77
2022/01/23 01:08:34;;;;;;;35.03;25.70;;;8.60;99.90;;;;;;5085297;28;20563;-77
2022/01/23 01:37:45;;;;;;;32.20;24.58;;;8.70;99.90;;;;;;5076363;28;20569;-77
2022/01/23 01:40:11;;;;;;;33.60;25.40;;;8.60;99.90;;;;;;5084566;28;20671;-78
2022/01/23 01:42:39;;;;;;;31.83;25.48;;;8.70;99.90;;;;;;5090074;28;20626;-78
2022/01/23 01:45:05;;;;;;;31.53;25.50;;;8.70;99.90;;;;;;5066520;28;20199;-78
2022/01/23 01:47:56;;;;;;;34.33;25.23;;;8.70;99.90;;;;;;5084361;28;20594;-77
2022/01/23 01:50:23;;;;;;;30.48;24.42;;;8.70;99.90;;;;;;5084734;28;20269;-77
2022/01/23 01:52:49;;;;;;;32.90;23.85;;;8.70;99.90;;;;;;5080359;28;20286;-77
2022/01/23 01:55:19;;;;;;;31.25;25.00;;;8.70;99.90;;;;;;5075391;28;20191;-77
2022/01/23 01:57:54;;;;;;;34.35;25.25;;;8.70;99.90;;;;;;5069297;28;20176;-77
2022/01/23 02:00:52;;;;;;;30.52;24.70;;;8.70;99.90;;;;;;5076951;28;20250;-76
2022/01/23 02:08:52;;;;;;;33.78;23.90;;;8.70;99.90;;;;;;5074155;28;20211;-76
2022/01/23 02:11:24;;;;;;;30.88;24.38;;;8.70;99.90;;;;;;5087969;28;20206;-77
2022/01/23 02:14:09;;;;;;;31.00;24.83;;;8.70;99.90;;;;;;5070738;28;20171;-77
2022/01/23 02:17:16;;;;;;;31.33;24.13;;;8.70;99.90;;;;;;5070714;28;20210;-77
2022/01/23 02:55:26;;;;;;;36.47;25.67;;;8.70;99.90;;;;;;5088527;28;20179;-75
2022/01/23 02:58:00;;;;;;;34.72;26.52;;;8.60;99.90;;;;;;5078757;28;20678;-76
2022/01/23 03:00:36;;;;;;;33.28;24.40;;;8.70;99.90;;;;;;5078203;28;20219;-76
2022/01/23 03:03:12;;;;;;;34.80;26.55;;;8.70;99.90;;;;;;5082123;28;20534;-76
2022/01/23 03:05:46;;;;;;;30.40;24.25;;;8.60;99.90;;;;;;5065104;28;20670;-75
2022/01/23 03:08:33;;;;;;;34.70;26.55;;;8.70;99.90;;;;;;5089657;28;20172;-78
2022/01/23 03:11:03;;;;;;;31.58;24.05;;;8.70;99.90;;;;;;5082646;28;20241;-78
2022/01/23 03:29:26;;;;;;;34.03;26.10;;;8.70;99.90;;;;;;5066210;28;20619;-77
2022/01/23 03:34:23;;;;;;;31.43;24.27;;;8.70;99.90;;;;;;5083834;28;20178;-76
2022/01/23 03:36:50;;;;;;;33.60;25.35;;;8.70;99.90;;;;;;5078850;28;20176;-76
2022/01/23 03:39:17;;;;;;;32.65;25.73;;;8.70;99.90;;;;;;5065997;28;20529;-77
2022/01/23 03:41:44;;;;;;;35.97;26.90;;;8.60;99.90;;;;;;5081646;28;21130;-76
2022/01/23 03:44:12;;;;;;;34.63;26.23;;;8.70;99.90;;;;;;5087270;28;20182;-76
2022/01/23 03:47:02;;;;;;;33.20;23.45;;;8.70;99.90;;;;;;5081072;28;20252;-76
2022/01/23 03:49:34;;;;;;;32.80;24.50;;;8.70;99.90;;;;;;5072037;28;20644;-76
2022/01/23 03:52:11;;;;;;;28.90;22.67;;;8.70;99.90;;;;;;5068177;28;20206;-75
2022/01/23 03:54:40;;;;;;;33.72;24.58;;;8.60;99.90;;;;;;5044275;28;20270;-76
2022/01/23 03:57:06;;;;;;;29.88;24.58;;;8.70;99.90;;;;;;5088903;28;20176;-76
2022/01/23 03:59:35;;;;;;;31.73;22.73;;;8.70;99.90;;;;;;5087874;28;20196;-76
2022/01/23 04:02:04;;;;;;;30.20;24.67;;;8.70;99.90;;;;;;5074698;28;20281;-76
2022/01/23 04:04:39;;;;;;;28.15;23.15;;;8.70;99.90;;;;;;5085635;28;20195;-76
2022/01/23 04:07:15;;;;;;;26.73;20.98;;;8.70;99.90;;;;;;5082512;28;20172;-76
2022/01/23 04:09:42;;;;;;;29.90;22.95;;;8.70;99.90;;;;;;5056630;28;20172;-76
2022/01/23 04:12:12;;;;;;;32.05;24.13;;;8.70;99.90;;;;;;5088407;28;20254;-76
2022/01/23 04:14:46;;;;;;;31.67;22.75;;;8.70;99.90;;;;;;5085344;28;20175;-76
2022/01/23 04:33:47;;;;;;;31.40;23.38;;;8.60;99.90;;;;;;5082929;28;20183;-75
2022/01/23 04:59:34;;;;;;;25.83;19.85;;;8.60;99.90;;;;;;5083819;28;20200;-75
2022/01/23 05:01:08;;;;;;;29.13;20.48;;;8.60;99.90;;;;;;5091338;28;20215;-75
2022/01/23 05:06:24;;;;;;;28.92;22.85;;;8.60;99.90;;;;;;5084275;28;20176;-75
2022/01/23 05:09:10;;;;;;;26.27;21.30;;;8.50;99.90;;;;;;5073511;28;20572;-75
2022/01/23 05:11:50;;;;;;;31.13;22.52;;;8.50;99.90;;;;;;5081020;28;20204;-75
2022/01/23 05:14:29;;;;;;;30.52;21.80;;;8.50;99.90;;;;;;5085702;28;20184;-75
2022/01/23 05:16:56;;;;;;;29.05;21.20;;;8.50;99.90;;;;;;5062828;28;20212;-76
2022/01/23 05:19:22;;;;;;;30.23;22.98;;;8.50;99.90;;;;;;5029001;28;20270;-75
2022/01/23 05:24:16;;;;;;;27.50;22.30;;;8.50;99.90;;;;;;5090337;28;20175;-75
2022/01/23 05:26:45;;;;;;;28.27;22.63;;;8.50;99.90;;;;;;5082137;28;20599;-75
2022/01/23 05:29:13;;;;;;;30.52;22.83;;;8.50;99.90;;;;;;5071575;28;20177;-75
2022/01/23 05:31:39;;;;;;;30.63;23.35;;;8.50;99.90;;;;;;5082289;28;20196;-76
2022/01/23 05:34:05;;;;;;;32.10;24.50;;;8.50;99.90;;;;;;5081934;28;20234;-75
2022/01/23 05:36:32;;;;;;;28.48;22.83;;;8.50;99.90;;;;;;5070845;28;20693;-75
2022/01/23 05:38:59;;;;;;;29.85;22.75;;;8.50;99.90;;;;;;5090052;28;20631;-75
2022/01/23 05:41:25;;;;;;;28.02;22.33;;;8.50;99.90;;;;;;5068642;28;20544;-75
2022/01/23 05:43:52;;;;;;;31.38;23.73;;;8.50;99.90;;;;;;5083384;28;20184;-75
2022/01/23 05:46:18;;;;;;;29.40;23.60;;;8.50;99.90;;;;;;5088447;28;20254;-75
2022/01/23 05:48:56;;;;;;;31.67;22.10;;;8.50;99.90;;;;;;5079442;28;20609;-75
2022/01/23 05:51:54;;;;;;;32.55;24.17;;;8.50;99.90;;;;;;5068958;28;20203;-76
2022/01/23 05:54:38;;;;;;;28.88;23.60;;;8.50;99.90;;;;;;5080147;28;20266;-75
2022/01/23 05:57:17;;;;;;;32.70;24.95;;;8.50;99.90;;;;;;5058508;28;20229;-75
2022/01/23 06:00:06;;;;;;;32.35;24.45;;;8.60;99.90;;;;;;5077743;28;20202;-75
2022/01/23 06:02:39;;;;;;;29.17;21.63;;;8.60;99.90;;;;;;5087349;28;20274;-75
2022/01/23 06:05:06;;;;;;;27.48;22.58;;;8.60;99.90;;;;;;5083414;28;20623;-75
2022/01/23 06:07:45;;;;;;;33.75;23.92;;;8.60;99.90;;;;;;5089233;28;20174;-75
2022/01/23 06:10:20;;;;;;;27.85;21.98;;;8.60;99.90;;;;;;5062940;28;20652;-75
2022/01/23 06:12:48;;;;;;;31.48;23.98;;;8.50;99.90;;;;;;5087813;28;20230;-75
2022/01/23 06:15:15;;;;;;;32.10;25.63;;;8.50;99.90;;;;;;5047100;28;20172;-75
2022/01/23 06:17:42;;;;;;;33.50;23.95;;;8.50;99.90;;;;;;5088309;28;20237;-74
2022/01/23 06:20:26;;;;;;;31.92;23.00;;;8.50;99.90;;;;;;5084034;28;20664;-75
2022/01/23 06:23:15;;;;;;;29.27;23.75;;;8.50;99.90;;;;;;5085040;28;20184;-76
2022/01/23 06:25:56;;;;;;;28.05;21.70;;;8.50;99.90;;;;;;5087066;28;20184;-75
2022/01/23 06:28:44;;;;;;;27.67;22.38;;;8.50;99.90;;;;;;5078277;28;20640;-76
2022/01/23 06:31:10;;;;;;;32.15;25.17;;;8.50;99.90;;;;;;5092761;28;20194;-76
2022/01/23 06:33:37;;;;;;;28.90;23.08;;;8.50;99.90;;;;;;5092574;28;20636;-76
2022/01/23 06:36:04;;;;;;;33.58;24.50;;;8.50;99.90;;;;;;5093314;28;20220;-76
2022/01/23 06:38:30;;;;;;;37.08;24.38;;;8.50;99.90;;;;;;5092649;28;20524;-77
2022/01/23 06:40:56;;;;;;;31.73;25.20;;;8.40;99.90;;;;;;5078089;28;20658;-75
2022/01/23 06:43:46;;;;;;;34.33;23.63;;;8.50;99.90;;;;;;5061992;28;20191;-76
2022/01/23 06:46:18;;;;;;;32.55;25.10;;;8.50;99.90;;;;;;5054527;28;20175;-76
2022/01/23 06:48:44;;;;;;;29.70;24.17;;;8.50;99.90;;;;;;5071084;28;20596;-76
2022/01/23 06:51:10;;;;;;;33.90;25.33;;;8.50;99.90;;;;;;5055383;28;20633;-76
2022/01/23 06:53:36;;;;;;;30.90;22.73;;;8.50;99.90;;;;;;5079335;28;20569;-76
2022/01/23 06:56:02;;;;;;;31.13;22.60;;;8.50;99.90;;;;;;5067319;28;20184;-77
2022/01/23 06:58:28;;;;;;;30.95;24.90;;;8.50;99.90;;;;;;5070612;28;20172;-77
2022/01/23 07:00:54;;;;;;;29.67;23.40;;;8.50;99.90;;;;;;5089878;28;20233;-76
2022/01/23 07:03:30;;;;;;;32.50;23.73;;;8.50;99.90;;;;;;5083109;28;20279;-76
2022/01/23 07:06:05;;;;;;;28.92;22.30;;;8.60;99.90;;;;;;5084981;28;20206;-76
2022/01/23 07:09:00;;;;;;;30.17;21.92;;;8.60;99.90;;;;;;5063070;28;20188;-76
2022/01/23 07:11:37;;;;;;;32.10;25.15;;;8.60;99.90;;;;;;5090564;28;20187;-76
2022/01/23 07:14:23;;;;;;;29.77;24.42;;;8.60;99.90;;;;;;5059228;28;20192;-76
2022/01/23 07:17:05;;;;;;;30.20;23.65;;;8.60;99.90;;;;;;5090496;28;20183;-76
2022/01/23 07:19:47;;;;;;;30.63;22.40;;;8.60;99.90;;;;;;5056416;28;20574;-76
2022/01/23 07:22:17;;;;;;;32.45;24.33;;;8.60;99.90;;;;;;5083138;28;20609;-76
2022/01/23 07:24:42;;;;;;;32.10;23.10;;;8.60;99.90;;;;;;5068287;28;20207;-76
2022/01/23 07:27:19;;;;;;;32.67;23.13;;;8.60;99.90;;;;;;5083495;28;20643;-76
2022/01/23 07:29:47;;;;;;;25.85;20.50;;;8.60;99.90;;;;;;5080311;28;20172;-76
2022/01/23 07:32:12;;;;;;;28.20;22.77;;;8.60;99.90;;;;;;5080289;28;20600;-76
2022/01/23 07:34:38;;;;;;;31.20;21.97;;;8.60;99.90;;;;;;5068878;28;20199;-76
2022/01/23 07:37:06;;;;;;;35.20;23.20;;;8.60;99.90;;;;;;5048381;28;21209;-75
2022/01/23 07:39:40;;;;;;;28.40;21.65;;;8.60;99.90;;;;;;5078822;28;20841;-78
2022/01/23 07:42:13;;;;;;;28.35;20.15;;;8.60;99.90;;;;;;5067704;28;20216;-79
2022/01/23 07:44:57;;;;;;;29.38;21.40;;;8.60;99.90;;;;;;5078436;28;20579;-78
2022/01/23 07:47:42;;;;;;;31.20;21.25;;;8.60;99.90;;;;;;5078397;28;20640;-79
2022/01/23 07:50:34;;;;;;;29.92;22.17;;;8.60;99.90;;;;;;5076824;28;20548;-79
2022/01/23 07:53:17;;;;;;;28.00;20.73;;;8.70;99.90;;;;;;5086449;28;20271;-79
2022/01/23 07:55:52;;;;;;;30.40;21.73;;;8.60;99.90;;;;;;5082128;28;20176;-79
2022/01/23 07:58:36;;;;;;;26.45;21.33;;;8.70;99.90;;;;;;5086753;28;20199;-79
2022/01/23 08:01:13;;;;;;;28.73;21.73;;;8.60;99.90;;;;;;5086839;28;20282;-78
2022/01/23 08:04:11;;;;;;;31.80;21.52;;;8.60;99.90;;;;;;5065184;28;20181;-79
2022/01/23 08:06:43;;;;;;;27.67;21.83;;;8.70;99.90;;;;;;5084219;28;20168;-79
2022/01/23 08:09:31;;;;;;;27.30;20.92;;;8.70;99.90;;;;;;5066871;28;20215;-79
2022/01/23 08:11:57;;;;;;;24.60;20.30;;;8.70;99.90;;;;;;5082493;28;20242;-79
2022/01/23 08:14:23;;;;;;;26.07;20.30;;;8.70;99.90;;;;;;5077775;28;20575;-79
2022/01/23 08:16:48;;;;;;;25.27;20.97;;;8.70;99.90;;;;;;5066418;28;20191;-79
2022/01/23 08:19:14;;;;;;;30.97;22.83;;;8.70;99.90;;;;;;5083694;28;20176;-79
2022/01/23 08:21:40;;;;;;;28.17;20.97;;;8.80;99.90;;;;;;5081980;28;20615;-79
2022/01/23 08:24:06;;;;;;;30.50;23.83;;;8.80;99.90;;;;;;5083727;28;20183;-79
2022/01/23 08:26:31;;;;;;;31.47;23.20;;;8.90;99.90;;;;;;5083772;28;20168;-79
2022/01/23 08:28:57;;;;;;;34.20;22.33;;;8.90;99.90;;;;;;5081389;28;20617;-79
2022/01/23 08:31:23;;;;;;;30.70;21.57;;;8.90;99.90;;;;;;5082063;28;20541;-79
2022/01/23 08:33:48;;;;;;;27.13;21.37;;;8.90;99.90;;;;;;5084641;28;20180;-80
2022/01/23 08:36:15;;;;;;;26.33;20.77;;;8.90;99.90;;;;;;5083145;28;20272;-80
2022/01/23 08:38:41;;;;;;;23.75;19.42;;;9.00;99.90;;;;;;5082325;28;20535;-79
2022/01/23 08:41:49;;;;;;;23.83;18.70;;;9.00;99.90;;;;;;5085200;28;20218;-79
2022/01/23 08:43:55;;;;;;;23.85;17.75;;;9.00;99.90;;;;;;5090181;28;20180;-81
2022/01/23 08:46:21;;;;;;;25.00;19.67;;;9.10;99.90;;;;;;5064609;28;20574;-80
2022/01/23 08:48:47;;;;;;;27.33;19.87;;;9.10;99.90;;;;;;5084764;28;20577;-77
2022/01/23 08:51:13;;;;;;;27.23;21.15;;;9.10;99.90;;;;;;5083284;28;20191;-80
2022/01/23 08:53:39;;;;;;;23.20;19.40;;;9.10;99.90;;;;;;5085177;28;20679;-80
2022/01/23 08:56:05;;;;;;;29.15;20.45;;;9.10;99.90;;;;;;5084391;28;20585;-79
2022/01/23 08:58:30;;;;;;;30.47;21.07;;;9.20;99.90;;;;;;5063927;28;20539;-80
2022/01/23 09:01:05;;;;;;;25.00;20.23;;;9.20;99.90;;;;;;5087391;28;20202;-80
2022/01/23 09:03:50;;;;;;;29.48;20.27;;;9.20;99.90;;;;;;5069401;28;20267;-79
2022/01/23 09:06:16;;;;;;;28.07;22.40;;;9.20;99.90;;;;;;5085335;28;20226;-79
2022/01/23 09:08:42;;;;;;;29.97;22.60;;;9.30;99.90;;;;;;5081583;28;20279;-80
2022/01/23 09:11:13;;;;;;;26.57;20.40;;;9.30;99.90;;;;;;5082747;28;20655;-79
2022/01/23 09:16:06;;;;;;;23.77;18.50;;;9.30;99.90;;;;;;5082277;28;20180;-79
2022/01/23 09:18:34;;;;;;;24.85;19.30;;;9.30;99.90;;;;;;5082358;28;20179;-79
2022/01/23 09:20:59;;;;;;;26.27;20.63;;;9.40;99.90;;;;;;5082614;28;20671;-79
2022/01/23 09:23:25;;;;;;;28.20;20.33;;;9.40;99.90;;;;;;5080525;28;20221;-79
2022/01/23 09:25:52;;;;;;;25.87;20.30;;;9.40;99.90;;;;;;5065266;28;20596;-80
2022/01/23 09:28:19;;;;;;;29.40;23.35;;;9.50;99.90;;;;;;5084000;28;20577;-79
2022/01/23 09:30:50;;;;;;;25.98;20.75;;;9.40;99.90;;;;;;5077408;28;20211;-79
2022/01/23 09:33:17;;;;;;;23.10;19.70;;;9.50;99.90;;;;;;5067049;28;20180;-79
2022/01/23 09:35:43;;;;;;;25.83;21.17;;;9.50;99.90;;;;;;5081450;28;20543;-79
2022/01/23 09:38:08;;;;;;;29.57;21.07;;;9.50;99.90;;;;;;5082818;28;20183;-79
2022/01/23 09:40:40;;;;;;;23.67;19.77;;;9.50;99.90;;;;;;5080906;28;20196;-79
2022/01/23 09:43:16;;;;;;;24.65;20.65;;;9.50;99.90;;;;;;5080802;28;20199;-80
2022/01/23 09:45:48;;;;;;;25.00;20.27;;;9.50;99.90;;;;;;5083601;28;20544;-80
2022/01/23 09:48:18;;;;;;;27.40;20.55;;;9.60;99.90;;;;;;5071336;28;20176;-82
2022/01/23 09:50:46;;;;;;;27.48;20.45;;;9.60;99.90;;;;;;5077028;28;20195;-80
2022/01/23 09:53:14;;;;;;;27.08;20.05;;;9.60;99.90;;;;;;5081884;28;20597;-80
2022/01/23 09:55:44;;;;;;;26.25;17.35;;;9.70;99.90;;;;;;5079746;28;20176;-80
2022/01/23 09:58:11;;;;;;;23.45;18.00;;;9.70;99.90;;;;;;5077857;28;20183;-80
2022/01/23 10:00:36;;;;;;;24.00;20.25;;;9.70;99.90;;;;;;5080053;28;20680;-79
2022/01/23 10:03:02;;;;;;;23.83;18.77;;;9.70;99.90;;;;;;5077218;28;20296;-80
2022/01/23 10:05:29;;;;;;;24.77;19.90;;;9.70;99.90;;;;;;5086103;28;20176;-79
2022/01/23 10:07:55;;;;;;;28.35;20.60;;;9.70;99.90;;;;;;5076658;28;20184;-79
2022/01/23 10:10:25;;;;;;;23.50;17.73;;;9.70;99.90;;;;;;5083179;28;20213;-79
2022/01/23 10:12:58;;;;;;;23.40;18.08;;;9.80;99.90;;;;;;5081615;28;20560;-79
2022/01/23 10:15:27;;;;;;;24.95;19.20;;;9.80;99.90;;;;;;5068224;28;20175;-79
2022/01/23 10:17:53;;;;;;;21.63;18.38;;;9.80;99.90;;;;;;5082743;28;20326;-80
2022/01/23 10:20:19;;;;;;;26.85;21.38;;;9.80;99.90;;;;;;5068949;28;20707;-80
2022/01/23 10:22:46;;;;;;;23.83;20.10;;;9.80;99.90;;;;;;5085099;28;20283;-80
2022/01/23 10:25:17;;;;;;;24.08;20.00;;;9.80;99.90;;;;;;5078115;28;20168;-80
2022/01/23 10:28:07;;;;;;;25.00;20.90;;;9.90;99.90;;;;;;5069446;28;20542;-81
2022/01/23 10:30:46;;;;;;;25.98;20.08;;;9.90;99.90;;;;;;5082366;28;20184;-81
2022/01/23 10:33:14;;;;;;;26.00;19.75;;;9.90;99.90;;;;;;5079673;28;20176;-81
2022/01/23 10:36:04;;;;;;;28.60;21.48;;;10.00;99.90;;;;;;5080581;28;20195;-81
2022/01/23 10:38:33;;;;;;;26.85;22.83;;;10.00;99.90;;;;;;5081513;28;20195;-80
2022/01/23 10:49:01;;;;;;;27.35;21.92;;;10.10;99.90;;;;;;5104829;28;20166;-82
2022/01/23 10:51:30;;;;;;;28.30;21.30;;;10.10;99.90;;;;;;5068669;28;20188;-81
2022/01/23 10:54:09;;;;;;;24.83;19.70;;;10.10;99.90;;;;;;5103032;28;20582;-80
2022/01/23 10:57:08;;;;;;;25.83;21.40;;;10.10;99.90;;;;;;5082747;28;20176;-80
2022/01/23 10:59:46;;;;;;;27.17;20.48;;;10.10;99.90;;;;;;5085507;28;20176;-80
2022/01/23 11:02:15;;;;;;;23.48;18.88;;;10.20;99.90;;;;;;5089777;28;20797;-80
2022/01/23 11:05:02;;;;;;;27.70;20.73;;;10.20;99.90;;;;;;5092629;28;20535;-79
2022/01/23 11:07:31;;;;;;;26.08;19.20;;;10.20;99.90;;;;;;5074386;28;20258;-79
2022/01/23 11:10:13;;;;;;;27.70;20.30;;;10.30;99.90;;;;;;5079298;28;20251;-79
2022/01/23 11:18:15;;;;;;;26.27;20.08;;;10.30;99.90;;;;;;5080010;28;20268;-78
2022/01/23 11:20:50;;;;;;;24.90;18.80;;;10.30;99.90;;;;;;5077740;28;20200;-78
2022/01/23 11:23:19;;;;;;;23.40;18.05;;;10.30;99.90;;;;;;5080527;28;20183;-78
2022/01/23 11:26:04;;;;;;;30.15;21.58;;;10.30;99.90;;;;;;5085848;28;20171;-78
2022/01/23 11:28:37;;;;;;;23.10;19.60;;;10.30;99.90;;;;;;5084825;28;20210;-78
2022/01/23 11:31:06;;;;;;;26.15;19.20;;;10.30;99.90;;;;;;5084601;28;20199;-79
2022/01/23 11:33:31;;;;;;;24.58;19.60;;;10.30;99.90;;;;;;5083587;28;20582;-78
2022/01/23 11:35:57;;;;;;;23.70;18.57;;;10.30;99.90;;;;;;5086857;28;20180;-78
2022/01/23 11:38:24;;;;;;;23.90;20.00;;;10.30;99.90;;;;;;5086419;28;20584;-78
2022/01/23 11:54:47;;;;;;;23.85;18.35;;;10.50;99.90;;;;;;5085491;28;20760;-78
2022/01/23 11:57:40;;;;;;;22.45;18.38;;;10.40;99.90;;;;;;5086488;28;20180;-79
2022/01/23 12:00:19;;;;;;;24.77;20.30;;;10.40;99.90;;;;;;5082880;28;20664;-78
2022/01/23 12:03:07;;;;;;;25.05;18.65;;;10.50;99.90;;;;;;5087193;28;20597;-78
2022/01/23 12:05:33;;;;;;;23.38;18.17;;;10.50;99.90;;;;;;5089741;28;20176;-79
2022/01/23 12:08:21;;;;;;;26.63;19.30;;;10.50;99.90;;;;;;5093288;28;20236;-78
2022/01/23 12:11:41;;;;;;;23.13;19.75;;;10.50;99.90;;;;;;5091413;28;20183;-79
2022/01/23 12:16:57;;;;;;;26.02;20.35;;;10.50;99.90;;;;;;5088529;28;20176;-89
2022/01/23 12:19:25;;;;;;;22.67;18.80;;;10.50;99.90;;;;;;5095298;28;20183;-90
2022/01/23 12:21:54;;;;;;;29.13;21.25;;;10.50;99.90;;;;;;5095008;28;20557;-88
2022/01/23 12:24:22;;;;;;;27.92;19.88;;;10.50;99.90;;;;;;5063412;28;20271;-88
2022/01/23 12:26:49;;;;;;;29.60;23.13;;;10.50;99.90;;;;;;5094585;28;20176;-88
2022/01/23 12:29:23;;;;;;;29.33;22.42;;;10.50;99.90;;;;;;5088670;28;20179;-88
2022/01/23 12:31:49;;;;;;;25.75;20.15;;;10.50;99.90;;;;;;5074329;28;20196;-89
2022/01/23 12:34:15;;;;;;;26.52;20.00;;;10.50;99.90;;;;;;5085725;28;20579;-90
2022/01/23 12:36:52;;;;;;;27.93;21.30;;;10.50;99.90;;;;;;5080103;28;20172;-88
2022/01/23 12:39:19;;;;;;;29.25;22.00;;;10.50;99.90;;;;;;5093171;28;20254;-89
2022/01/23 12:41:51;;;;;;;28.25;20.77;;;10.50;99.90;;;;;;5065933;28;20340;-89
2022/01/23 12:44:22;;;;;;;27.85;20.80;;;10.50;99.90;;;;;;5073209;28;20545;-89
2022/01/23 12:46:59;;;;;;;33.92;20.70;;;10.50;99.90;;;;;;5074421;28;20164;-87
2022/01/23 12:49:34;;;;;;;29.45;21.25;;;10.50;99.90;;;;;;5075644;28;20175;-88
2022/01/23 12:52:05;;;;;;;28.42;22.15;;;10.50;99.90;;;;;;5094819;28;20209;-88
2022/01/23 12:54:33;;;;;;;34.13;22.88;;;10.50;99.90;;;;;;5090947;28;20237;-88
2022/01/23 12:57:09;;;;;;;28.77;22.77;;;10.40;99.90;;;;;;5086638;28;20183;-87
2022/01/23 12:59:36;;;;;;;25.20;22.20;;;10.40;99.90;;;;;;5091578;28;20195;-89
2022/01/23 13:02:10;;;;;;;30.50;21.98;;;10.40;99.90;;;;;;5092361;28;20211;-90
2022/01/23 13:04:40;;;;;;;24.80;20.23;;;10.40;99.90;;;;;;5090849;28;20174;-87
2022/01/23 13:07:15;;;;;;;27.35;22.55;;;10.40;99.90;;;;;;5089387;28;20546;-76
2022/01/23 13:09:52;;;;;;;27.73;22.85;;;10.40;99.90;;;;;;5090842;28;20167;-76
2022/01/23 13:32:32;;;;;;;25.67;18.88;;;10.40;99.90;;;;;;5089790;28;20202;-75
2022/01/23 13:35:08;;;;;;;27.65;21.58;;;10.40;99.90;;;;;;5071716;28;20179;-74
2022/01/23 13:37:37;;;;;;;24.55;18.83;;;10.40;99.90;;;;;;5086891;28;20266;-74
2022/01/23 13:40:28;;;;;;;29.85;21.00;;;10.40;99.90;;;;;;5089038;28;20194;-73
2022/01/23 14:02:36;;;;;;;23.58;16.85;;;10.40;99.90;;;;;;5082349;28;20580;-75
2022/01/23 14:05:09;;;;;;;22.55;17.83;;;10.40;99.90;;;;;;5088938;28;20175;-75
2022/01/23 14:07:35;;;;;;;24.40;18.35;;;10.40;99.90;;;;;;5088944;28;20179;-75
2022/01/23 14:10:18;;;;;;;20.75;16.70;;;10.40;99.90;;;;;;5090528;28;20175;-75
2022/01/23 14:12:46;;;;;;;22.90;18.88;;;10.40;99.90;;;;;;5088835;28;20248;-75
2022/01/23 14:15:18;;;;;;;23.35;17.67;;;10.40;99.90;;;;;;5086602;28;20644;-75
2022/01/23 14:17:58;;;;;;;21.05;16.85;;;10.40;99.90;;;;;;5080980;28;20176;-75
2022/01/23 14:20:27;;;;;;;21.85;16.65;;;10.40;99.90;;;;;;5076954;28;20168;-74
2022/01/23 14:22:53;;;;;;;23.02;17.42;;;10.40;99.90;;;;;;5063062;28;20206;-75
2022/01/23 14:25:26;;;;;;;22.00;17.80;;;10.40;99.90;;;;;;5078956;28;20168;-75
2022/01/23 14:28:09;;;;;;;23.95;17.50;;;10.40;99.90;;;;;;5069046;28;20669;-75
2022/01/23 14:30:45;;;;;;;21.27;15.45;;;10.40;99.90;;;;;;5078915;28;20255;-75
2022/01/23 14:33:18;;;;;;;24.70;18.50;;;10.50;99.90;;;;;;5086676;28;20278;-75
2022/01/23 14:35:44;;;;;;;21.92;18.20;;;10.50;99.90;;;;;;5080186;28;20180;-73
2022/01/23 14:38:15;;;;;;;21.02;16.30;;;10.50;99.90;;;;;;5082872;28;20629;-73
2022/01/23 14:41:00;;;;;;;24.55;19.33;;;10.50;99.90;;;;;;5065489;28;20214;-73
2022/01/23 14:43:39;;;;;;;24.55;18.27;;;10.50;99.90;;;;;;5082408;28;20365;-74
2022/01/23 14:46:07;;;;;;;22.38;18.35;;;10.60;99.90;;;;;;5060077;28;20247;-73
2022/01/23 14:48:39;;;;;;;23.95;18.50;;;10.60;99.90;;;;;;5080697;28;20168;-73
2022/01/23 14:51:06;;;;;;;15.35;13.20;;;10.60;99.90;;;;;;5080747;28;20253;-73
2022/01/23 14:53:37;;;;;;;18.10;13.40;;;10.60;99.90;;;;;;5083067;28;20184;-73
2022/01/23 14:56:06;;;;;;;20.95;15.45;;;10.50;99.90;;;;;;5079639;28;20207;-73
2022/01/23 14:58:33;;;;;;;21.02;15.27;;;10.30;99.90;;;;;;5075131;28;20514;-73
2022/01/23 15:01:00;;;;;;;18.65;14.43;;;10.20;99.90;;;;;;5086342;28;20286;-74
2022/01/23 15:03:29;;;;;;;22.33;16.85;;;10.10;99.90;;;;;;5080564;28;20168;-73
2022/01/23 15:05:55;;;;;;;20.90;15.43;;;10.00;99.90;;;;;;5090597;28;20203;-73
2022/01/23 15:08:24;;;;;;;17.98;14.05;;;9.90;99.90;;;;;;5073745;28;20167;-73
2022/01/23 15:10:53;;;;;;;21.92;15.73;;;9.80;99.90;;;;;;5082235;28;20172;-73
2022/01/23 15:13:25;;;;;;;21.35;14.90;;;9.70;99.90;;;;;;5065122;28;20259;-73
2022/01/23 15:15:55;;;;;;;24.70;14.85;;;9.70;99.90;;;;;;5077193;28;20195;-72
2022/01/23 15:18:24;;;;;;;22.08;14.82;;;9.70;99.90;;;;;;5068347;28;20654;-72
2022/01/23 15:20:50;;;;;;;20.65;15.55;;;9.60;99.90;;;;;;5078874;28;20195;-73
2022/01/23 15:23:16;;;;;;;23.73;16.87;;;9.60;99.90;;;;;;5078838;28;20657;-74
2022/01/23 15:25:44;;;;;;;23.88;17.77;;;9.60;99.90;;;;;;5078734;28;20182;-73
2022/01/23 15:28:10;;;;;;;18.75;14.80;;;9.70;99.90;;;;;;5082973;28;20172;-82
2022/01/23 15:30:40;;;;;;;14.95;11.60;;;9.70;99.90;;;;;;5064478;28;20258;-82
2022/01/23 15:33:07;;;;;;;15.80;11.07;;;9.70;99.90;;;;;;5080716;28;20684;-85
2022/01/23 15:35:35;;;;;;;12.13;9.18;;;9.70;99.90;;;;;;5078577;28;20637;-87
2022/01/23 15:38:02;;;;;;;9.15;6.63;;;9.70;99.90;;;;;;5073535;28;20594;-87
2022/01/23 15:40:30;;;;;;;7.38;5.65;;;9.60;99.90;;;;;;5081645;28;20177;-85
2022/01/23 15:42:56;;;;;;;6.63;4.35;;;9.60;99.90;;;;;;5082706;28;20570;-88
2022/01/23 15:45:29;;;;;;;3.78;2.95;;;9.60;99.90;;;;;;5064812;28;20182;-86
2022/01/23 15:47:58;;;;;;;4.18;3.33;;;9.50;99.90;;;;;;5094292;28;20591;-84
2022/01/23 15:50:24;;;;;;;3.78;2.78;;;9.50;99.90;;;;;;5097806;28;20297;-83
2022/01/23 15:52:50;;;;;;;5.00;3.57;;;9.50;99.90;;;;;;5087448;28;20718;-85
2022/01/23 15:55:18;;;;;;;4.38;3.53;;;9.50;99.90;;;;;;5085958;28;20180;-85
2022/01/23 15:57:45;;;;;;;4.70;3.10;;;9.50;99.90;;;;;;5086312;28;20182;-78
2022/01/23 16:00:18;;;;;;;4.68;3.22;;;9.50;99.90;;;;;;5074613;28;20601;-77
2022/01/23 16:02:52;;;;;;;3.75;3.30;;;9.50;99.90;;;;;;5062106;28;20207;-77
2022/01/23 16:05:22;;;;;;;4.95;3.45;;;9.50;99.90;;;;;;5083780;28;20182;-77
2022/01/23 16:07:48;;;;;;;4.53;2.65;;;9.40;99.90;;;;;;5064536;28;20542;-76
2022/01/23 16:10:14;;;;;;;3.00;2.63;;;9.40;99.90;;;;;;5077983;28;20179;-76
2022/01/23 16:12:41;;;;;;;3.30;2.43;;;9.40;99.90;;;;;;5082977;28;20204;-76
2022/01/23 16:15:14;;;;;;;3.20;2.65;;;9.50;99.90;;;;;;5085655;28;20202;-76
2022/01/23 16:17:49;;;;;;;3.90;2.75;;;9.50;99.90;;;;;;5083297;28;20175;-76
2022/01/23 16:20:17;;;;;;;3.53;2.75;;;9.50;99.90;;;;;;5063142;28;20270;-80
2022/01/23 16:22:44;;;;;;;4.00;3.60;;;9.50;99.90;;;;;;5080522;28;20203;-82
2022/01/23 16:25:10;;;;;;;3.72;2.70;;;9.50;99.90;;;;;;5086404;28;20172;-82
2022/01/23 16:27:37;;;;;;;5.30;4.47;;;9.50;99.90;;;;;;5082974;28;20180;-81
2022/01/23 16:30:05;;;;;;;3.35;2.95;;;9.50;99.90;;;;;;5070487;28;20165;-80
2022/01/23 16:32:31;;;;;;;5.15;3.90;;;9.50;99.90;;;;;;5070241;28;20223;-82
2022/01/23 16:34:57;;;;;;;4.50;4.10;;;9.50;99.90;;;;;;5089334;28;20268;-84
2022/01/23 16:37:22;;;;;;;3.50;2.70;;;9.50;99.90;;;;;;5089051;28;20184;-83